Terminal Aerodrome Forecast
Issued by NWS

Home | Current Version | Previous Version | Text Only | Print | Product List | Glossary On
Versions: 1 2 3 4 5 6 7 8 9 10 11 12
000
FTUS42 KMLB 020500
TAFTIX
TAF
KTIX 020535Z 0206/0306 00000KT P6SM SCT250
     FM021400 07005KT P6SM VCTS SCT025CB SCT250
     FM021800 09010KT P6SM FEW030 SCT100 BKN250
     FM030000 10003KT P6SM FEW040 BKN100
      AMD NOT SKED 0206/0211=

USA.gov is the U.S. government's official web portal to all federal, state and local government web resources and services.